createdAt,value
2022-10-28T00:00:39.312Z,12.93
2022-10-28T00:01:39.596Z,13.03
2022-10-28T00:02:39.525Z,12.95
2022-10-28T00:03:42.046Z,12.99
2022-10-28T00:04:39.310Z,13.01
2022-10-28T00:05:39.294Z,12.93
2022-10-28T00:06:39.315Z,12.93
2022-10-28T00:07:39.336Z,12.9
2022-10-28T00:08:39.310Z,12.94
2022-10-28T00:09:42.169Z,12.9
2022-10-28T00:10:39.314Z,12.95
2022-10-28T00:11:39.325Z,12.91
2022-10-28T00:12:39.338Z,12.9
2022-10-28T00:13:39.324Z,12.93
2022-10-28T00:14:42.494Z,12.95
2022-10-28T00:15:39.322Z,12.95
2022-10-28T00:16:39.318Z,12.98
2022-10-28T00:17:39.319Z,13.01
2022-10-28T00:18:39.324Z,12.98
2022-10-28T00:19:39.341Z,12.9
2022-10-28T00:20:42.427Z,12.94
2022-10-28T00:21:39.337Z,13.02
2022-10-28T00:22:39.321Z,12.95
2022-10-28T00:23:39.360Z,12.91
2022-10-28T00:24:39.337Z,12.91
2022-10-28T00:25:42.150Z,12.87
2022-10-28T00:26:39.341Z,12.88
2022-10-28T00:27:39.347Z,12.86
2022-10-28T00:28:39.354Z,12.87
2022-10-28T00:29:39.342Z,12.84
2022-10-28T00:30:39.404Z,12.9
2022-10-28T00:31:42.367Z,12.86
2022-10-28T00:32:39.212Z,12.95
2022-10-28T00:33:39.348Z,12.91
2022-10-28T00:34:39.354Z,12.94
2022-10-28T00:35:39.343Z,13.01
2022-10-28T00:36:42.927Z,13.03
2022-10-28T00:37:39.357Z,12.93
2022-10-28T00:38:39.368Z,12.93
2022-10-28T00:39:39.379Z,12.83
2022-10-28T00:40:39.355Z,12.81
2022-10-28T00:41:39.415Z,12.87
2022-10-28T00:42:39.357Z,12.87
2022-10-28T00:43:39.372Z,12.91
2022-10-28T00:44:39.512Z,12.9
2022-10-28T00:45:39.371Z,12.94
2022-10-28T00:46:39.467Z,13.05
2022-10-28T00:47:42.439Z,13.01
2022-10-28T00:48:40.449Z,12.98
2022-10-28T00:49:39.381Z,13.08
2022-10-28T00:50:39.387Z,13.09
2022-10-28T00:51:39.401Z,13.09
2022-10-28T00:52:39.402Z,13.17
2022-10-28T00:53:39.403Z,13.12
2022-10-28T00:54:39.386Z,13.13
2022-10-28T00:55:39.402Z,13.12
2022-10-28T00:56:39.441Z,13.13
2022-10-28T00:57:39.397Z,13.11
2022-10-28T00:58:39.397Z,13.17
2022-10-28T00:59:39.399Z,13.23
2022-10-28T01:00:39.425Z,13.19
2022-10-28T01:01:39.818Z,13.11
2022-10-28T01:02:39.691Z,13.09
2022-10-28T01:03:39.424Z,13.08
2022-10-28T01:04:39.425Z,13.02
2022-10-28T01:05:39.406Z,13.12
2022-10-28T01:06:39.439Z,13.09
2022-10-28T01:07:39.411Z,13.13
2022-10-28T01:08:39.420Z,13.08
2022-10-28T01:09:39.408Z,13.03
2022-10-28T01:10:39.439Z,13.11
2022-10-28T01:11:39.459Z,13.05
2022-10-28T01:12:39.414Z,12.98
2022-10-28T01:13:39.428Z,12.94
2022-10-28T01:14:39.421Z,12.93
2022-10-28T01:15:39.420Z,12.94
2022-10-28T01:16:39.464Z,12.93
2022-10-28T01:17:39.447Z,12.94
2022-10-28T01:18:39.121Z,12.91
2022-10-28T01:19:42.401Z,12.9
2022-10-28T01:20:48.872Z,12.88
2022-10-28T01:21:39.469Z,12.78
2022-10-28T01:22:39.444Z,12.78
2022-10-28T01:23:39.436Z,12.88
2022-10-28T01:24:39.476Z,12.93
2022-10-28T01:25:39.430Z,12.95
2022-10-28T01:26:39.497Z,12.94
2022-10-28T01:27:39.472Z,12.94
2022-10-28T01:28:39.443Z,12.93
2022-10-28T01:29:39.443Z,13.02
2022-10-28T01:30:42.307Z,12.98
2022-10-28T01:31:39.479Z,13.01
2022-10-28T01:32:39.468Z,12.88
2022-10-28T01:33:39.473Z,12.93
2022-10-28T01:34:39.495Z,12.95
2022-10-28T01:35:39.480Z,12.91
2022-10-28T01:36:39.545Z,12.91
2022-10-28T01:37:39.473Z,12.87
2022-10-28T01:38:39.481Z,12.94
2022-10-28T01:39:39.457Z,12.88
2022-10-28T01:40:39.467Z,12.93
2022-10-28T01:41:42.572Z,12.9
2022-10-28T01:42:39.467Z,12.99
2022-10-28T01:43:39.479Z,12.91
2022-10-28T01:44:39.478Z,12.94
2022-10-28T01:45:39.463Z,12.9
2022-10-28T01:46:39.474Z,12.86
2022-10-28T01:47:39.477Z,12.91
2022-10-28T01:48:39.672Z,12.9
2022-10-28T01:49:39.553Z,12.88
2022-10-28T01:50:39.495Z,12.88
2022-10-28T01:51:39.479Z,12.86
2022-10-28T01:52:42.365Z,12.83
2022-10-28T01:53:39.477Z,12.84
2022-10-28T01:54:39.484Z,12.8
2022-10-28T01:55:39.488Z,12.84
2022-10-28T01:56:39.495Z,12.83
2022-10-28T01:57:39.544Z,12.83
2022-10-28T01:58:39.499Z,12.75
2022-10-28T01:59:39.509Z,12.8
2022-10-28T02:00:39.762Z,12.73
2022-10-28T02:01:40.434Z,12.7
2022-10-28T02:02:39.492Z,12.76
2022-10-28T02:03:42.279Z,12.8
2022-10-28T02:04:39.526Z,12.73
2022-10-28T02:05:39.504Z,12.84
2022-10-28T02:06:39.527Z,12.72
2022-10-28T02:07:39.529Z,12.62
2022-10-28T02:08:39.508Z,12.66
2022-10-28T02:09:39.534Z,12.65
2022-10-28T02:10:39.518Z,12.53
2022-10-28T02:11:39.509Z,12.58
2022-10-28T02:12:39.544Z,12.61
2022-10-28T02:13:39.515Z,12.55
2022-10-28T02:14:42.565Z,12.61
2022-10-28T02:15:39.520Z,12.55
2022-10-28T02:16:39.536Z,12.65
2022-10-28T02:17:39.558Z,12.66
2022-10-28T02:18:39.514Z,12.7
2022-10-28T02:19:39.538Z,12.62
2022-10-28T02:20:39.556Z,12.69
2022-10-28T02:21:39.580Z,12.76
2022-10-28T02:22:39.576Z,12.84
2022-10-28T02:23:39.571Z,12.83
2022-10-28T02:24:39.534Z,12.68
2022-10-28T02:25:42.538Z,12.73
2022-10-28T02:26:39.530Z,12.76
2022-10-28T02:27:39.565Z,12.66
2022-10-28T02:28:39.383Z,12.81
2022-10-28T02:29:39.534Z,12.75
2022-10-28T02:30:42.738Z,12.72
2022-10-28T02:31:39.547Z,12.7
2022-10-28T02:32:39.573Z,12.63
2022-10-28T02:33:39.558Z,12.72
2022-10-28T02:34:39.560Z,12.68
2022-10-28T02:35:39.549Z,12.57
2022-10-28T02:36:42.603Z,12.62
2022-10-28T02:37:39.639Z,12.53
2022-10-28T02:38:39.587Z,12.63
2022-10-28T02:39:39.547Z,12.57
2022-10-28T02:40:39.637Z,12.65
2022-10-28T02:41:42.321Z,12.78
2022-10-28T02:42:39.589Z,12.78
2022-10-28T02:43:39.558Z,12.68
2022-10-28T02:44:39.596Z,12.73
2022-10-28T02:45:39.574Z,12.69
2022-10-28T02:46:39.589Z,12.75
2022-10-28T02:47:43.357Z,12.73
2022-10-28T02:48:39.566Z,12.8
2022-10-28T02:49:39.593Z,12.8
2022-10-28T02:50:39.594Z,12.75
2022-10-28T02:51:39.577Z,12.88
2022-10-28T02:52:41.038Z,12.81
2022-10-28T02:53:39.586Z,12.95
2022-10-28T02:54:39.604Z,12.81
2022-10-28T02:55:39.594Z,12.78
2022-10-28T02:56:39.591Z,12.8
2022-10-28T02:57:39.610Z,12.75
2022-10-28T02:58:39.663Z,12.72
2022-10-28T02:59:39.574Z,12.7
2022-10-28T03:00:39.705Z,12.78
2022-10-28T03:01:40.208Z,12.68
2022-10-28T03:02:42.650Z,12.69
2022-10-28T03:03:42.706Z,12.7
2022-10-28T03:04:39.612Z,12.76
2022-10-28T03:05:39.589Z,12.69
2022-10-28T03:06:39.609Z,12.76
2022-10-28T03:07:39.647Z,12.73
2022-10-28T03:08:42.662Z,12.7
2022-10-28T03:09:39.627Z,12.72
2022-10-28T03:10:39.691Z,12.69
2022-10-28T03:11:39.607Z,12.7
2022-10-28T03:12:39.760Z,12.73
2022-10-28T03:13:39.617Z,12.69
2022-10-28T03:14:42.715Z,12.65
2022-10-28T03:15:39.640Z,12.7
2022-10-28T03:16:39.624Z,12.65
2022-10-28T03:17:39.674Z,12.66
2022-10-28T03:18:39.667Z,12.66
2022-10-28T03:19:39.637Z,12.66
2022-10-28T03:20:39.627Z,12.66
2022-10-28T03:21:39.679Z,12.66
2022-10-28T03:22:39.656Z,12.65
2022-10-28T03:23:39.637Z,12.58
2022-10-28T03:24:39.551Z,12.69
2022-10-28T03:25:39.643Z,12.63
2022-10-28T03:26:39.663Z,12.66
2022-10-28T03:27:39.668Z,12.65
2022-10-28T03:28:39.646Z,12.58
2022-10-28T03:29:44.777Z,12.72
2022-10-28T03:30:39.490Z,12.66
2022-10-28T03:31:39.660Z,12.65
2022-10-28T03:32:39.712Z,12.7
2022-10-28T03:33:39.660Z,12.66
2022-10-28T03:34:39.718Z,12.66
2022-10-28T03:35:39.648Z,12.68
2022-10-28T03:36:39.679Z,12.69
2022-10-28T03:37:39.539Z,12.66
2022-10-28T03:38:39.666Z,12.69
2022-10-28T03:39:39.685Z,12.73
2022-10-28T03:40:39.783Z,12.65
2022-10-28T03:41:39.662Z,12.61
2022-10-28T03:42:43.642Z,12.57
2022-10-28T03:43:39.668Z,12.62
2022-10-28T03:44:39.662Z,12.62
2022-10-28T03:45:39.680Z,12.63
2022-10-28T03:46:42.563Z,12.63
2022-10-28T03:47:39.716Z,12.66
2022-10-28T03:48:39.673Z,12.58
2022-10-28T03:49:39.673Z,12.44
2022-10-28T03:50:39.727Z,12.39
2022-10-28T03:51:39.673Z,12.45
2022-10-28T03:52:39.680Z,12.3
2022-10-28T03:53:39.677Z,12.32
2022-10-28T03:54:39.681Z,12.25
2022-10-28T03:55:39.523Z,12.2
2022-10-28T03:56:40.006Z,12.25
2022-10-28T03:57:42.519Z,12.18
2022-10-28T03:58:45.573Z,12.33
2022-10-28T03:59:39.700Z,12.29
2022-10-28T04:00:39.736Z,12.26
2022-10-28T04:01:40.057Z,12.33
2022-10-28T04:02:39.740Z,12.36
2022-10-28T04:03:39.737Z,12.35
2022-10-28T04:04:39.706Z,12.35
2022-10-28T04:05:39.701Z,12.33
2022-10-28T04:06:39.795Z,12.43
2022-10-28T04:07:39.715Z,12.4
2022-10-28T04:08:40.796Z,12.36
2022-10-28T04:09:39.703Z,12.36
2022-10-28T04:10:42.599Z,12.4
2022-10-28T04:11:39.719Z,12.37
2022-10-28T04:12:39.726Z,12.33
2022-10-28T04:13:39.817Z,12.36
2022-10-28T04:14:39.743Z,12.39
2022-10-28T04:15:39.726Z,12.37
2022-10-28T04:16:39.715Z,12.36
2022-10-28T04:17:39.723Z,12.33
2022-10-28T04:18:39.743Z,12.33
2022-10-28T04:19:42.591Z,12.44
2022-10-28T04:20:39.754Z,12.4
2022-10-28T04:21:39.737Z,12.47
2022-10-28T04:22:39.755Z,12.4
2022-10-28T04:23:39.752Z,12.44
2022-10-28T04:24:39.747Z,12.4
2022-10-28T04:25:39.788Z,12.4
2022-10-28T04:26:39.737Z,12.39
2022-10-28T04:27:39.741Z,12.37
2022-10-28T04:28:39.804Z,12.39
2022-10-28T04:29:39.737Z,12.39
2022-10-28T04:30:42.650Z,12.37
2022-10-28T04:31:39.782Z,12.36
2022-10-28T04:32:39.746Z,12.43
2022-10-28T04:33:39.766Z,12.39
2022-10-28T04:34:39.758Z,12.47
2022-10-28T04:35:39.750Z,12.43
2022-10-28T04:36:39.770Z,12.45
2022-10-28T04:37:39.762Z,12.44
2022-10-28T04:38:39.814Z,12.5
2022-10-28T04:39:39.753Z,12.47
2022-10-28T04:40:39.763Z,12.5
2022-10-28T04:41:42.816Z,12.48
2022-10-28T04:42:39.812Z,12.44
2022-10-28T04:43:39.778Z,12.48
2022-10-28T04:44:39.849Z,12.45
2022-10-28T04:45:39.774Z,12.35
2022-10-28T04:46:39.807Z,12.44
2022-10-28T04:47:39.760Z,12.36
2022-10-28T04:48:39.794Z,12.4
2022-10-28T04:49:43.312Z,12.4
2022-10-28T04:50:39.873Z,12.48
2022-10-28T04:51:40.012Z,12.61
2022-10-28T04:52:42.836Z,12.62
2022-10-28T04:53:39.814Z,12.57
2022-10-28T04:54:39.815Z,12.5
2022-10-28T04:55:39.782Z,12.61
2022-10-28T04:56:39.815Z,12.57
2022-10-28T04:57:39.928Z,12.53
2022-10-28T04:58:39.809Z,12.63
2022-10-28T04:59:39.785Z,12.5
2022-10-28T05:00:39.823Z,12.43
2022-10-28T05:01:40.343Z,12.44
2022-10-28T05:02:46.179Z,12.36
2022-10-28T05:03:42.656Z,12.3
2022-10-28T05:04:39.799Z,12.26
2022-10-28T05:05:39.789Z,12.23
2022-10-28T05:06:39.824Z,12.36
2022-10-28T05:07:39.808Z,12.28
2022-10-28T05:08:41.117Z,12.29
2022-10-28T05:09:39.816Z,12.35
2022-10-28T05:10:39.830Z,12.39
2022-10-28T05:11:39.810Z,12.37
2022-10-28T05:12:39.948Z,12.44
2022-10-28T05:13:39.824Z,12.39
2022-10-28T05:14:42.912Z,12.39
2022-10-28T05:15:39.841Z,12.35
2022-10-28T05:16:39.860Z,12.39
2022-10-28T05:17:39.824Z,12.32
2022-10-28T05:18:40.195Z,12.32
2022-10-28T05:19:42.718Z,12.32
2022-10-28T05:20:39.832Z,12.36
2022-10-28T05:21:39.815Z,12.37
2022-10-28T05:22:39.820Z,12.32
2022-10-28T05:23:40.005Z,12.32
2022-10-28T05:24:39.835Z,12.43
2022-10-28T05:25:42.857Z,12.36
2022-10-28T05:26:39.832Z,12.48
2022-10-28T05:27:39.842Z,12.55
2022-10-28T05:28:39.858Z,12.57
2022-10-28T05:29:39.835Z,12.65
2022-10-28T05:30:42.875Z,12.61
2022-10-28T05:31:39.868Z,12.61
2022-10-28T05:32:39.883Z,12.65
2022-10-28T05:33:39.891Z,12.69
2022-10-28T05:34:39.870Z,12.65
2022-10-28T05:35:39.878Z,12.65
2022-10-28T05:36:39.837Z,12.72
2022-10-28T05:37:39.856Z,12.69
2022-10-28T05:38:40.349Z,12.65
2022-10-28T05:39:39.877Z,12.66
2022-10-28T05:40:40.872Z,12.72
2022-10-28T05:41:43.522Z,12.65
2022-10-28T05:42:39.854Z,12.5
2022-10-28T05:43:39.895Z,12.62
2022-10-28T05:44:39.869Z,12.55
2022-10-28T05:45:39.879Z,12.66
2022-10-28T05:46:39.879Z,12.8
2022-10-28T05:47:43.875Z,12.68
2022-10-28T05:48:39.885Z,12.7
2022-10-28T05:49:39.878Z,12.69
2022-10-28T05:50:39.904Z,12.75
2022-10-28T05:51:39.921Z,12.73
2022-10-28T05:52:39.885Z,12.65
2022-10-28T05:53:39.930Z,12.62
2022-10-28T05:54:39.913Z,12.83
2022-10-28T05:55:42.712Z,12.7
2022-10-28T05:56:39.894Z,12.78
2022-10-28T05:57:39.902Z,12.76
2022-10-28T05:58:40.004Z,12.75
2022-10-28T05:59:39.884Z,12.72
2022-10-28T06:00:39.880Z,12.8
2022-10-28T06:01:42.690Z,12.78
2022-10-28T06:02:39.899Z,12.84
2022-10-28T06:03:40.104Z,12.87
2022-10-28T06:04:39.910Z,12.88
2022-10-28T06:05:39.888Z,12.87
2022-10-28T06:06:39.927Z,12.94
2022-10-28T06:07:39.954Z,12.94
2022-10-28T06:08:39.921Z,12.99
2022-10-28T06:09:39.927Z,13.01
2022-10-28T06:10:39.899Z,12.98
2022-10-28T06:11:38.375Z,12.98
2022-10-28T06:12:38.397Z,13.06
2022-10-28T06:13:41.176Z,13.06
2022-10-28T06:14:38.386Z,13.12
2022-10-28T06:15:38.384Z,13.09
2022-10-28T06:16:38.434Z,13.05
2022-10-28T06:17:38.401Z,13.19
2022-10-28T06:18:38.412Z,13.23
2022-10-28T06:19:38.578Z,13.13
2022-10-28T06:20:38.404Z,13.17
2022-10-28T06:21:38.387Z,13.27
2022-10-28T06:22:38.420Z,13.27
2022-10-28T06:23:38.526Z,13.26
2022-10-28T06:24:41.249Z,13.27
2022-10-28T06:25:38.403Z,13.31
2022-10-28T06:26:38.412Z,13.36
2022-10-28T06:27:38.414Z,13.31
2022-10-28T06:28:41.481Z,13.31
2022-10-28T06:29:38.470Z,13.31
2022-10-28T06:30:38.418Z,13.42
2022-10-28T06:31:38.520Z,13.4
2022-10-28T06:32:38.431Z,13.39
2022-10-28T06:33:38.450Z,13.4
2022-10-28T06:34:38.428Z,13.4
2022-10-28T06:35:39.663Z,13.36
2022-10-28T06:36:38.457Z,13.33
2022-10-28T06:37:38.441Z,13.39
2022-10-28T06:38:38.535Z,13.4
2022-10-28T06:39:38.508Z,13.33
2022-10-28T06:40:38.453Z,13.43
2022-10-28T06:41:38.451Z,13.42
2022-10-28T06:42:38.455Z,13.4
2022-10-28T06:43:38.524Z,13.39
2022-10-28T06:44:38.469Z,13.46
2022-10-28T06:45:38.476Z,13.45
2022-10-28T06:46:43.028Z,13.52
2022-10-28T06:47:45.829Z,13.52
2022-10-28T06:48:39.997Z,13.57
2022-10-28T06:49:39.981Z,13.54
2022-10-28T06:50:39.986Z,13.54
2022-10-28T06:51:40.023Z,13.49
2022-10-28T06:52:40.193Z,13.57
2022-10-28T06:53:40.030Z,13.5
2022-10-28T06:54:39.993Z,13.54
2022-10-28T06:55:40.167Z,13.55
2022-10-28T06:56:39.999Z,13.5
2022-10-28T06:57:42.996Z,13.54
2022-10-28T06:58:40.028Z,13.65
2022-10-28T06:59:40.003Z,13.46
2022-10-28T07:00:40.090Z,13.47
2022-10-28T07:01:40.434Z,13.52
2022-10-28T07:02:46.485Z,13.45
2022-10-28T07:03:40.049Z,13.4
2022-10-28T07:04:40.022Z,13.42
2022-10-28T07:05:40.021Z,13.46
2022-10-28T07:06:40.025Z,13.37
2022-10-28T07:07:40.053Z,13.5
2022-10-28T07:08:40.655Z,13.57
2022-10-28T07:09:40.035Z,13.64
2022-10-28T07:10:40.031Z,13.65
2022-10-28T07:11:40.058Z,13.62
2022-10-28T07:12:40.039Z,13.73
2022-10-28T07:13:40.048Z,13.73
2022-10-28T07:14:40.058Z,13.87
2022-10-28T07:15:40.051Z,13.8
2022-10-28T07:16:40.385Z,13.83
2022-10-28T07:17:40.073Z,13.93
2022-10-28T07:18:40.050Z,14
2022-10-28T07:19:42.909Z,13.91
2022-10-28T07:20:40.069Z,13.87
2022-10-28T07:21:40.055Z,13.95
2022-10-28T07:22:40.059Z,13.97
2022-10-28T07:23:40.086Z,14
2022-10-28T07:24:40.134Z,13.98
2022-10-28T07:25:40.093Z,14.03
2022-10-28T07:26:40.077Z,14.03
2022-10-28T07:27:40.097Z,14.12
2022-10-28T07:28:40.070Z,14.04
2022-10-28T07:29:40.074Z,14.13
2022-10-28T07:30:42.849Z,14.13
2022-10-28T07:31:40.076Z,14.08
2022-10-28T07:32:40.084Z,14.16
2022-10-28T07:33:40.105Z,14.18
2022-10-28T07:34:40.091Z,14.18
2022-10-28T07:35:43.099Z,14.2
2022-10-28T07:36:40.100Z,14.25
2022-10-28T07:37:40.093Z,14.31
2022-10-28T07:38:40.095Z,14.3
2022-10-28T07:39:40.212Z,14.3
2022-10-28T07:40:40.099Z,14.31
2022-10-28T07:41:42.934Z,14.36
2022-10-28T07:42:40.103Z,14.41
2022-10-28T07:43:40.189Z,14.44
2022-10-28T07:44:40.107Z,14.41
2022-10-28T07:45:40.100Z,14.44
2022-10-28T07:46:41.228Z,14.44
2022-10-28T07:47:40.118Z,14.52
2022-10-28T07:48:40.120Z,14.56
2022-10-28T07:49:40.169Z,14.63
2022-10-28T07:50:40.275Z,14.67
2022-10-28T07:51:40.126Z,14.82
2022-10-28T07:52:43.220Z,14.96
2022-10-28T07:53:40.137Z,14.99
2022-10-28T07:54:40.145Z,15.22
2022-10-28T07:55:40.170Z,15.45
2022-10-28T07:56:40.130Z,15.54
2022-10-28T07:57:42.996Z,15.57
2022-10-28T07:58:40.122Z,15.69
2022-10-28T07:59:40.188Z,15.67
2022-10-28T08:00:40.451Z,15.78
2022-10-28T08:01:40.858Z,15.88
2022-10-28T08:02:40.140Z,15.94
2022-10-28T08:03:43.713Z,15.91
2022-10-28T08:04:40.181Z,15.98
2022-10-28T08:05:40.146Z,16.06
2022-10-28T08:06:40.266Z,16.02
2022-10-28T08:07:43.372Z,16.1
2022-10-28T08:08:43.218Z,16.17
2022-10-28T08:09:40.194Z,16.24
2022-10-28T08:10:40.122Z,16.29
2022-10-28T08:11:40.247Z,16.43
2022-10-28T08:12:43.015Z,16.5
2022-10-28T08:13:44.013Z,16.55
2022-10-28T08:14:40.134Z,16.54
2022-10-28T08:15:40.162Z,16.58
2022-10-28T08:16:40.126Z,16.57
2022-10-28T08:17:40.125Z,16.58
2022-10-28T08:18:40.170Z,16.55
2022-10-28T08:19:40.166Z,16.58
2022-10-28T08:20:40.125Z,16.55
2022-10-28T08:21:40.172Z,16.65
2022-10-28T08:22:40.129Z,16.66
2022-10-28T08:23:40.157Z,16.66
2022-10-28T08:24:40.153Z,16.68
2022-10-28T08:25:40.127Z,16.68
2022-10-28T08:26:40.165Z,16.73
2022-10-28T08:27:40.156Z,16.77
2022-10-28T08:28:40.199Z,16.74
2022-10-28T08:29:40.173Z,16.79
2022-10-28T08:31:10.762Z,16.95
2022-10-28T08:31:40.174Z,16.94
2022-10-28T08:32:40.143Z,16.92
2022-10-28T08:33:40.155Z,16.89
2022-10-28T08:34:46.055Z,16.82
2022-10-28T08:35:40.140Z,16.91
2022-10-28T08:36:40.216Z,16.86
2022-10-28T08:37:40.378Z,16.97
2022-10-28T08:38:45.994Z,16.84
2022-10-28T08:39:40.655Z,16.83
2022-10-28T08:40:43.264Z,16.82
2022-10-28T08:41:40.187Z,16.91
2022-10-28T08:42:40.159Z,16.87
2022-10-28T08:44:00.860Z,16.84
2022-10-28T08:44:40.182Z,16.92
2022-10-28T08:45:40.232Z,16.89
2022-10-28T08:46:40.191Z,16.94
2022-10-28T08:47:40.264Z,16.89
2022-10-28T08:48:40.184Z,16.95
2022-10-28T08:49:40.206Z,16.98
2022-10-28T08:50:40.191Z,17.14
2022-10-28T08:51:42.987Z,17.16
2022-10-28T08:52:40.276Z,17.23
2022-10-28T08:53:40.207Z,17.2
2022-10-28T08:54:40.346Z,17.19
2022-10-28T08:55:40.200Z,17.31
2022-10-28T08:56:41.598Z,17.37
2022-10-28T08:57:40.199Z,17.42
2022-10-28T08:58:40.281Z,17.49
2022-10-28T08:59:40.295Z,17.52
2022-10-28T09:00:40.213Z,17.63
2022-10-28T09:01:40.913Z,17.71
2022-10-28T09:02:43.047Z,17.75
2022-10-28T09:03:43.584Z,17.82
2022-10-28T09:04:40.294Z,17.84
2022-10-28T09:05:40.219Z,17.79
2022-10-28T09:06:40.268Z,17.9
2022-10-28T09:07:40.214Z,18.03
2022-10-28T09:08:40.261Z,18.05
2022-10-28T09:09:40.263Z,18.21
2022-10-28T09:10:40.203Z,18.24
2022-10-28T09:11:40.225Z,18.37
2022-10-28T09:12:40.216Z,18.42
2022-10-28T09:13:43.093Z,18.57
2022-10-28T09:14:40.241Z,18.79
2022-10-28T09:16:40.225Z,18.94
2022-10-28T09:17:40.241Z,19.08
2022-10-28T09:18:40.224Z,19.29
2022-10-28T09:19:40.272Z,19.57
2022-10-28T09:20:40.245Z,19.72
2022-10-28T09:21:40.235Z,19.79
2022-10-28T09:22:40.330Z,19.92
2022-10-28T09:23:40.244Z,20
2022-10-28T09:24:42.158Z,20.18
2022-10-28T09:25:40.282Z,20.19
2022-10-28T09:26:40.254Z,20.44
2022-10-28T09:27:40.257Z,20.66
2022-10-28T09:28:40.248Z,20.71
2022-10-28T09:29:46.536Z,20.86
2022-10-28T09:30:40.253Z,21.04
2022-10-28T09:31:40.315Z,21.14
2022-10-28T09:32:40.444Z,21.25
2022-10-28T09:33:40.504Z,21.33
2022-10-28T09:34:40.363Z,21.25
2022-10-28T09:35:43.131Z,21.38
2022-10-28T09:36:40.275Z,21.56
2022-10-28T09:37:40.256Z,21.6
2022-10-28T09:38:40.278Z,21.75
2022-10-28T09:39:41.221Z,21.7
2022-10-28T09:40:40.302Z,21.6
2022-10-28T09:41:40.291Z,21.7
2022-10-28T09:43:40.272Z,21.92
2022-10-28T09:44:40.274Z,22.12
2022-10-28T09:45:40.269Z,22.06
2022-10-28T09:46:44.758Z,22.01
2022-10-28T09:47:40.321Z,21.99
2022-10-28T09:48:40.279Z,21.96
2022-10-28T09:49:40.276Z,21.88
2022-10-28T09:50:40.308Z,21.84
2022-10-28T09:51:40.359Z,21.92
2022-10-28T09:52:40.302Z,21.81
2022-10-28T09:53:41.058Z,21.83
2022-10-28T09:54:40.294Z,21.63
2022-10-28T09:55:40.347Z,21.63
2022-10-28T09:56:40.308Z,21.77
2022-10-28T09:57:41.526Z,22
2022-10-28T09:58:40.321Z,21.99
2022-10-28T09:59:40.355Z,21.78
2022-10-28T10:00:40.308Z,21.84
2022-10-28T10:01:40.542Z,21.75
2022-10-28T10:02:43.417Z,21.77
2022-10-28T10:03:40.310Z,21.72
2022-10-28T10:04:40.340Z,21.65
2022-10-28T10:05:40.323Z,21.59
2022-10-28T10:06:40.328Z,21.51
2022-10-28T10:07:40.585Z,21.47
2022-10-28T10:08:43.107Z,21.45
2022-10-28T10:09:40.318Z,21.63
2022-10-28T10:10:40.332Z,21.6
2022-10-28T10:11:40.326Z,21.7
2022-10-28T10:12:40.320Z,21.89
2022-10-28T10:13:43.438Z,21.97
2022-10-28T10:14:40.332Z,22.07
2022-10-28T10:15:40.336Z,22.14
2022-10-28T10:16:40.344Z,22.18
2022-10-28T10:17:40.342Z,22.22
2022-10-28T10:18:40.395Z,22.28
2022-10-28T10:19:45.385Z,22.46
2022-10-28T10:20:40.353Z,22.67
2022-10-28T10:21:40.351Z,22.62
2022-10-28T10:22:40.351Z,22.88
2022-10-28T10:24:43.117Z,23.08
2022-10-28T10:25:40.381Z,23.11
2022-10-28T10:26:40.360Z,23.13
2022-10-28T10:27:40.381Z,23.17
2022-10-28T10:28:40.363Z,23.37
2022-10-28T10:29:40.389Z,23.36
2022-10-28T10:30:40.383Z,23.66
2022-10-28T10:31:40.400Z,23.66
2022-10-28T10:32:40.384Z,23.84
2022-10-28T10:33:40.373Z,23.88
2022-10-28T10:34:40.390Z,23.91
2022-10-28T10:35:42.490Z,23.91
2022-10-28T10:36:40.414Z,23.99
2022-10-28T10:37:40.400Z,24.09
2022-10-28T10:38:40.418Z,23.96
2022-10-28T10:39:40.423Z,24
2022-10-28T10:40:40.879Z,24.38
2022-10-28T10:41:40.393Z,24.31
2022-10-28T10:43:15.026Z,24.22
2022-10-28T10:43:40.434Z,24.04
2022-10-28T10:44:40.389Z,24
2022-10-28T10:45:40.441Z,23.73
2022-10-28T10:46:40.419Z,23.73
2022-10-28T10:47:40.395Z,23.59
2022-10-28T10:48:40.402Z,23.49
2022-10-28T10:49:40.459Z,23.07
2022-10-28T10:50:40.462Z,23.07
2022-10-28T10:51:44.667Z,23.02
2022-10-28T10:52:40.396Z,22.95
2022-10-28T10:53:40.405Z,22.99
2022-10-28T10:54:40.419Z,22.86
2022-10-28T10:55:40.471Z,22.74
2022-10-28T10:56:40.411Z,22.67
2022-10-28T10:57:40.409Z,22.67
2022-10-28T10:58:40.410Z,22.58
2022-10-28T10:59:40.472Z,22.55
2022-10-28T11:00:40.309Z,22.65
2022-10-28T11:01:40.917Z,22.58
2022-10-28T11:02:43.739Z,22.55
2022-10-28T11:03:40.438Z,22.56
2022-10-28T11:04:40.425Z,22.56
2022-10-28T11:05:45.457Z,22.63
2022-10-28T11:06:40.421Z,22.68
2022-10-28T11:07:43.442Z,22.56
2022-10-28T11:08:40.433Z,22.61
2022-10-28T11:09:40.432Z,22.67
2022-10-28T11:10:40.429Z,22.71
2022-10-28T11:11:40.497Z,22.73
2022-10-28T11:12:40.436Z,22.86
2022-10-28T11:13:46.326Z,22.99
2022-10-28T11:14:40.509Z,22.99
2022-10-28T11:15:40.446Z,23.07
2022-10-28T11:16:40.444Z,23.08
2022-10-28T11:17:43.310Z,23.11
2022-10-28T11:18:43.226Z,23.1
2022-10-28T11:19:40.471Z,23.2
2022-10-28T11:20:40.459Z,23.1
2022-10-28T11:21:40.671Z,23.14
2022-10-28T11:22:40.471Z,23.02
2022-10-28T11:23:40.465Z,23.02
2022-10-28T11:24:40.463Z,23.01
2022-10-28T11:25:40.470Z,23.02
2022-10-28T11:26:40.474Z,22.98
2022-10-28T11:27:40.507Z,23.02
2022-10-28T11:28:40.481Z,23.2
2022-10-28T11:29:43.397Z,23.34
2022-10-28T11:30:40.308Z,23.45
2022-10-28T11:31:40.511Z,23.67
2022-10-28T11:33:24.618Z,23.76
2022-10-28T11:33:42.592Z,23.79
2022-10-28T11:34:41.969Z,23.88
2022-10-28T11:35:45.836Z,23.82
2022-10-28T11:36:41.985Z,23.89
2022-10-28T11:37:42.006Z,23.96
2022-10-28T11:38:47.955Z,23.82
2022-10-28T11:39:41.831Z,23.81
2022-10-28T11:40:45.033Z,23.85
2022-10-28T11:41:42.021Z,23.76
2022-10-28T11:42:42.067Z,23.85
2022-10-28T11:43:42.043Z,23.88
2022-10-28T11:44:42.025Z,23.94
2022-10-28T11:45:43.780Z,24.14
2022-10-28T11:46:42.057Z,24.24
2022-10-28T11:47:42.006Z,24.14
2022-10-28T11:48:42.115Z,24.26
2022-10-28T11:49:42.087Z,24.28
2022-10-28T11:50:42.058Z,24.36
2022-10-28T11:51:42.273Z,24.19
2022-10-28T11:52:47.958Z,24.21
2022-10-28T11:53:42.038Z,24.09
2022-10-28T11:54:42.028Z,24.04
2022-10-28T11:55:42.043Z,24.07
2022-10-28T11:56:42.053Z,24.11
2022-10-28T11:57:42.015Z,24.24
2022-10-28T11:58:42.020Z,24.31
2022-10-28T11:59:42.045Z,24.41
2022-10-28T12:00:42.029Z,24.51
2022-10-28T12:01:42.407Z,24.63
2022-10-28T12:02:47.067Z,24.71
2022-10-28T12:03:42.035Z,24.65
2022-10-28T12:04:43.137Z,24.75
2022-10-28T12:05:42.029Z,24.84
2022-10-28T12:06:45.064Z,24.75
2022-10-28T12:07:42.044Z,24.92
2022-10-28T12:08:42.084Z,25.04
2022-10-28T12:09:42.053Z,25.11
2022-10-28T12:10:42.117Z,25.14
2022-10-28T12:11:42.132Z,25.26
2022-10-28T12:12:51.512Z,25.25
2022-10-28T12:13:45.187Z,25.26
2022-10-28T12:14:42.073Z,25.33
2022-10-28T12:15:42.157Z,25.33
2022-10-28T12:16:42.100Z,25.46
2022-10-28T12:17:42.053Z,25.51
2022-10-28T12:18:42.072Z,25.54
2022-10-28T12:19:42.065Z,25.43
2022-10-28T12:20:42.091Z,25.41
2022-10-28T12:21:42.104Z,25.31
2022-10-28T12:22:42.160Z,25.12
2022-10-28T12:23:43.139Z,25.19
2022-10-28T12:24:45.113Z,25.15
2022-10-28T12:25:42.084Z,25.11
2022-10-28T12:26:42.114Z,25.15
2022-10-28T12:27:42.075Z,25.09
2022-10-28T12:28:42.093Z,25
2022-10-28T12:29:42.086Z,24.88
2022-10-28T12:30:42.097Z,24.85
2022-10-28T12:31:42.124Z,24.89
2022-10-28T12:32:42.085Z,24.88
2022-10-28T12:33:42.232Z,24.89
2022-10-28T12:34:42.122Z,25.04
2022-10-28T12:35:45.214Z,24.89
2022-10-28T12:36:42.119Z,24.81
2022-10-28T12:37:47.668Z,24.66
2022-10-28T12:38:42.094Z,24.58
2022-10-28T12:39:42.101Z,24.48
2022-10-28T12:40:42.123Z,24.34
2022-10-28T12:42:42.108Z,24.34
2022-10-28T12:43:42.102Z,24.21
2022-10-28T12:44:42.107Z,24.1
2022-10-28T12:45:42.116Z,24.06
2022-10-28T12:46:45.204Z,24.01
2022-10-28T12:47:46.702Z,23.99
2022-10-28T12:48:42.137Z,23.94
2022-10-28T12:49:42.133Z,23.92
2022-10-28T12:50:42.120Z,23.76
2022-10-28T12:51:42.017Z,23.89
2022-10-28T12:52:42.116Z,23.69
2022-10-28T12:53:42.139Z,23.69
2022-10-28T12:54:42.146Z,23.67
2022-10-28T12:55:42.191Z,23.69
2022-10-28T12:56:42.398Z,23.51
2022-10-28T12:57:42.132Z,23.64
2022-10-28T12:58:42.129Z,23.59
2022-10-28T12:59:42.136Z,23.55